Detalii statie AGRICHIM STEFAN CEL MARE [0000198F]

Toti senzorii

Date Temperatura solului [C]Precipitatii [mm]Voltaj baterie [mV]HC Air temperature [C]HC Relative humidity [%]Punctul de roua [C]
medieminmaxsumaultimamedieminmaxmediemediemin
2020-01-19 11:00:00 2.4 2.3 2.5 0 6854 2.38 2.21 2.54 0 0 0
2020-01-19 12:00:00 2.4 2.4 2.5 0 6854 2.69 2.55 2.81 0 0 0
2020-01-19 13:00:00 2.4 2.3 2.6 0 6942 3.22 2.9 3.55 0 0 0
2020-01-19 14:00:00 2.5 2.3 2.7 0 6962 3.7 3.45 3.87 0 0 0
2020-01-19 15:00:00 2.6 2.6 2.8 0 6932 3.29 3.18 3.43 0 0 0
2020-01-19 16:00:00 2.7 2.7 2.9 0 6844 3.03 2.89 3.22 0 0 0
2020-01-19 17:00:00 2.8 2.7 2.9 0 6834 2.51 2.22 2.85 0 0 0
2020-01-19 18:00:00 2.8 2.7 3 0 6816 2.04 1.95 2.19 0 0 0
2020-01-19 19:00:00 2.7 2.7 2.8 0 6806 1.83 1.75 1.93 0 0 0
2020-01-19 20:00:00 2.7 2.7 2.8 0 6796 1.53 1.4 1.79 0 0 0
2020-01-19 21:00:00 2.6 2.6 2.7 0 6786 1.31 1.24 1.42 0 0 0
2020-01-19 22:00:00 2.6 2.6 2.7 0 6796 1.23 1.16 1.28 0 0 0
2020-01-19 23:00:00 2.5 2.5 2.7 0 6786 1.04 0.81 1.2 0 0 0
2020-01-20 00:00:00 2.5 2.3 2.6 0 6796 0.58 0.38 0.83 0 0 0
2020-01-20 01:00:00 2.4 2.3 2.6 0 6776 -0.18 -0.56 0.46 0 0 0
2020-01-20 02:00:00 2.4 2.4 2.5 0 6786 -1.39 -1.69 -0.61 0 0 0
2020-01-20 03:00:00 2.3 2.2 2.5 0 6776 -1.69 -1.92 -1.52 0 0 0
2020-01-20 04:00:00 2.2 2.1 2.3 0 6776 -1.28 -1.42 -1.19 0 0 0
2020-01-20 05:00:00 2 2 2.2 0 6786 -1.38 -1.74 -1.01 0 0 0
2020-01-20 06:00:00 2 1.9 2.1 0 6776 -1 -1.09 -0.93 0 0 0
2020-01-20 07:00:00 1.9 1.9 2 0 6786 -1.07 -1.11 -1.04 0 0 0
2020-01-20 08:00:00 1.8 1.8 2 0 6776 -1.37 -1.5 -1.24 0 0 0
2020-01-20 09:00:00 1.8 1.8 1.9 0 6786 -1.24 -1.44 -1.03 0 0 0
2020-01-20 10:00:00 1.8 1.8 1.9 0 6816 -0.77 -1.01 -0.5 0 0 0
2020-01-20 11:00:00 1.7 1.7 1.9 0 6884 -0.15 -0.44 0.18 0 0 0
2020-01-20 12:00:00 1.8 1.7 1.9 0 6932 0.61 0.27 0.81 0 0 0
2020-01-20 13:00:00 1.8 1.7 2 0 6952 0.99 0.82 1.23 0 0 0
2020-01-20 14:00:00 1.9 1.9 2 0 6952 1.35 1.1 1.56 0 0 0
2020-01-20 15:00:00 2 2 2.2 0 6952 1.63 1.53 1.72 0 0 0
2020-01-20 16:00:00 2.1 2 2.2 0 6894 1.36 1.1 1.55 0 0 0
2020-01-20 17:00:00 2.1 2 2.2 0 6884 0.7 -0.07 1.07 0 0 0
2020-01-20 18:00:00 2.1 2 2.2 0 6854 -0.78 -1.44 -0.21 0 0 0
2020-01-20 19:00:00 2.1 2 2.3 0 6826 -1.56 -1.85 -1.39 0 0 0
2020-01-20 20:00:00 1.9 1.9 2.2 0 6806 -1.9 -2.31 -1.53 0 0 0
2020-01-20 21:00:00 1.8 1.8 2 0 6806 -1.84 -2.35 -1.65 0 0 0
2020-01-20 22:00:00 1.8 1.7 1.9 0 6796 -2.44 -3.45 -1.86 0 0 0
2020-01-20 23:00:00 1.7 1.5 1.8 0 6776 -3.38 -3.55 -3.1 0 0 0
2020-01-21 00:00:00 1.5 1.4 1.6 0 6766 -2.54 -4.5 -0.17 0 0 0
2020-01-21 01:00:00 1.5 1.4 1.7 0 6786 -0.12 -0.22 -0.02 0 0 0
2020-01-21 02:00:00 1.4 1.2 1.6 0 6786 -0.15 -0.33 -0.02 0 0 0
2020-01-21 03:00:00 1.3 1.3 1.4 0 6796 -0.5 -0.9 -0.27 0 0 0
2020-01-21 04:00:00 1.3 1.2 1.5 0 6786 -1.74 -2.2 -1.11 0 0 0
2020-01-21 05:00:00 1.3 1.2 1.5 0 6776 -2.95 -3.67 -2.35 0 0 0
2020-01-21 06:00:00 1.2 1.2 1.4 0 6776 -4.09 -4.68 -3.65 0 0 0
2020-01-21 07:00:00 1.2 1.1 1.4 0 6776 -4.78 -4.95 -4.68 0 0 0
2020-01-21 08:00:00 1.1 1.1 1.2 0 6756 -5.03 -5.31 -4.73 0 0 0
2020-01-21 09:00:00 1.1 1.1 1.2 0 6796 -4.01 -4.8 -3.31 0 0 0
2020-01-21 10:00:00 1 0.9 1.3 0 6922 -2.53 -3.07 -1.79 0 0 0